Mineral Point, Pennsylvania
Current Conditions -  °F | °C
As of 7:54 PM on Saturday 25 Oct 2014 (Local Time) from KJST Reporting Station
Overcast Overcast  
Wind Chill: 14°   Ceiling: 2600
Heat Index: 14°   Visibility: 10mi
Dew Point:   Wind: 16mph
Humidity: 67%   Direction: 240°WSW
Pressure: 29.75"   Gusts: 25mph
Location:  40.38°N, 78.84°W
Report Text: KJST 252354Z AUTO 24014G22KT 10SM BKN026 OVC034 14/08 A2975 RMK AO2 SLP074 T01440083 10161 20139 51001
Loading
Personal Weather Stations






























Interactive Weather Map
Tropical Storm Tracking
New forecast layout! Learn more

10-Day Weather Forecast

Advertisements
Track Severe Weather on mobile